Time;durP1;ratioP1;P1;durP2;ratioP2;P2;SDS_P1;SDS_P2;PMS_P1;PMS_P2;Temp;Humidity;BMP_temperature;BMP_pressure;BME280_temperature;BME280_humidity;BME280_pressure;Samples;Min_cycle;Max_cycle;Signal;HPM_P1;HPM_P2
2021/05/23 00:00:13;;;;;;;0.4;0.3;;;;;;;;;;;;;
2021/05/23 00:02:38;;;;;;;0.2;0.2;;;;;;;;;;;;;
2021/05/23 00:05:04;;;;;;;0.3;0.3;;;;;;;;;;;;;
2021/05/23 00:07:29;;;;;;;2.9;0.6;;;;;;;;;;;;;
2021/05/23 00:09:56;;;;;;;2;0.6;;;;;;;;;;;;;
2021/05/23 00:12:21;;;;;;;0.3;0.3;;;;;;;;;;;;;
2021/05/23 00:14:46;;;;;;;4.5;0.3;;;;;;;;;;;;;
2021/05/23 00:17:11;;;;;;;0.3;0.3;;;;;;;;;;;;;
2021/05/23 00:19:37;;;;;;;0.9;0.5;;;;;;;;;;;;;
2021/05/23 00:22:03;;;;;;;0.8;0.4;;;;;;;;;;;;;
2021/05/23 00:24:29;;;;;;;0.5;0.4;;;;;;;;;;;;;
2021/05/23 00:26:54;;;;;;;0.4;0.4;;;;;;;;;;;;;
2021/05/23 00:29:19;;;;;;;2.2;0.5;;;;;;;;;;;;;
2021/05/23 00:31:44;;;;;;;0.6;0.4;;;;;;;;;;;;;
2021/05/23 00:34:10;;;;;;;0.4;0.3;;;;;;;;;;;;;
2021/05/23 00:36:35;;;;;;;0.7;0.5;;;;;;;;;;;;;
2021/05/23 00:39:02;;;;;;;0.7;0.5;;;;;;;;;;;;;
2021/05/23 00:41:28;;;;;;;1.1;0.5;;;;;;;;;;;;;
2021/05/23 00:43:53;;;;;;;0.5;0.3;;;;;;;;;;;;;
2021/05/23 00:46:18;;;;;;;1;0.7;;;;;;;;;;;;;
2021/05/23 00:48:44;;;;;;;0.5;0.3;;;;;;;;;;;;;
2021/05/23 00:51:09;;;;;;;0.3;0.3;;;;;;;;;;;;;
2021/05/23 00:53:35;;;;;;;0.5;0.5;;;;;;;;;;;;;
2021/05/23 00:56:00;;;;;;;0.3;0.3;;;;;;;;;;;;;
2021/05/23 00:58:27;;;;;;;0.3;0.3;;;;;;;;;;;;;
2021/05/23 01:00:52;;;;;;;0.2;0.2;;;;;;;;;;;;;
2021/05/23 01:03:18;;;;;;;0.2;0.2;;;;;;;;;;;;;
2021/05/23 01:05:43;;;;;;;0.3;0.2;;;;;;;;;;;;;
2021/05/23 01:08:08;;;;;;;1;0.4;;;;;;;;;;;;;
2021/05/23 01:10:35;;;;;;;0.8;0.2;;;;;;;;;;;;;
2021/05/23 01:13:00;;;;;;;2.1;0.5;;;;;;;;;;;;;
2021/05/23 01:15:25;;;;;;;1.4;0.2;;;;;;;;;;;;;
2021/05/23 01:17:51;;;;;;;0.5;0.5;;;;;;;;;;;;;
2021/05/23 01:20:17;;;;;;;0.5;0.3;;;;;;;;;;;;;
2021/05/23 01:22:42;;;;;;;0.4;0.3;;;;;;;;;;;;;
2021/05/23 01:25:07;;;;;;;0.2;0.2;;;;;;;;;;;;;
2021/05/23 01:27:35;;;;;;;2.7;0.7;;;;;;;;;;;;;
2021/05/23 01:29:57;;;;;;;0.7;0.3;;;;;;;;;;;;;
2021/05/23 01:35:16;;;;;;;0.2;0.2;;;;;;;;;;;;;
2021/05/23 01:37:37;;;;;;;0.3;0.3;;;;;;;;;;;;;
2021/05/23 01:40:02;;;;;;;0.4;0.4;;;;;;;;;;;;;
2021/05/23 01:42:27;;;;;;;0.8;0.3;;;;;;;;;;;;;
2021/05/23 01:44:53;;;;;;;0.3;0.3;;;;;;;;;;;;;
2021/05/23 01:47:18;;;;;;;0.2;0.2;;;;;;;;;;;;;
2021/05/23 01:49:43;;;;;;;0.3;0.3;;;;;;;;;;;;;
2021/05/23 01:52:08;;;;;;;0.9;0.3;;;;;;;;;;;;;
2021/05/23 01:54:33;;;;;;;0.3;0.3;;;;;;;;;;;;;
2021/05/23 01:56:58;;;;;;;0.7;0.6;;;;;;;;;;;;;
2021/05/23 01:59:25;;;;;;;1;0.5;;;;;;;;;;;;;
2021/05/23 02:01:50;;;;;;;0.4;0.3;;;;;;;;;;;;;
2021/05/23 02:04:17;;;;;;;1.4;0.3;;;;;;;;;;;;;
2021/05/23 02:06:42;;;;;;;0.7;0.3;;;;;;;;;;;;;
2021/05/23 02:09:08;;;;;;;0.2;0.2;;;;;;;;;;;;;
2021/05/23 02:11:33;;;;;;;0.2;0.2;;;;;;;;;;;;;
2021/05/23 02:13:58;;;;;;;0.3;0.2;;;;;;;;;;;;;
2021/05/23 02:16:23;;;;;;;0.3;0.3;;;;;;;;;;;;;
2021/05/23 02:18:49;;;;;;;1.1;0.3;;;;;;;;;;;;;
2021/05/23 02:21:14;;;;;;;0.6;0.4;;;;;;;;;;;;;
2021/05/23 02:23:40;;;;;;;0.4;0.1;;;;;;;;;;;;;
2021/05/23 02:26:06;;;;;;;0.2;0.2;;;;;;;;;;;;;
2021/05/23 02:28:32;;;;;;;0.4;0.2;;;;;;;;;;;;;
2021/05/23 02:30:57;;;;;;;0.2;0.2;;;;;;;;;;;;;
2021/05/23 02:33:22;;;;;;;0.1;0.1;;;;;;;;;;;;;
2021/05/23 02:35:47;;;;;;;0.1;0.1;;;;;;;;;;;;;
2021/05/23 02:38:12;;;;;;;2.2;0.3;;;;;;;;;;;;;
2021/05/23 02:40:39;;;;;;;0.1;0.1;;;;;;;;;;;;;
2021/05/23 02:43:04;;;;;;;0.1;0.1;;;;;;;;;;;;;
2021/05/23 02:45:29;;;;;;;0.2;0.2;;;;;;;;;;;;;
2021/05/23 02:47:54;;;;;;;1.5;0.2;;;;;;;;;;;;;
2021/05/23 02:50:20;;;;;;;6.4;0.4;;;;;;;;;;;;;
2021/05/23 02:52:46;;;;;;;0.5;0.3;;;;;;;;;;;;;
2021/05/23 02:55:14;;;;;;;0.2;0.2;;;;;;;;;;;;;
2021/05/23 02:57:39;;;;;;;0.2;0.2;;;;;;;;;;;;;
2021/05/23 03:00:06;;;;;;;0.4;0.4;;;;;;;;;;;;;
2021/05/23 03:02:32;;;;;;;0.3;0.2;;;;;;;;;;;;;
2021/05/23 03:04:57;;;;;;;0.7;0.2;;;;;;;;;;;;;
2021/05/23 03:07:22;;;;;;;0.1;0.1;;;;;;;;;;;;;
2021/05/23 03:09:48;;;;;;;0.2;0.2;;;;;;;;;;;;;
2021/05/23 03:12:13;;;;;;;0.4;0.3;;;;;;;;;;;;;
2021/05/23 03:14:41;;;;;;;0.4;0.4;;;;;;;;;;;;;
2021/05/23 03:17:07;;;;;;;0.1;0.1;;;;;;;;;;;;;
2021/05/23 03:19:31;;;;;;;0.7;0.3;;;;;;;;;;;;;
2021/05/23 03:21:56;;;;;;;0.1;0.1;;;;;;;;;;;;;
2021/05/23 03:24:22;;;;;;;0.3;0.2;;;;;;;;;;;;;
2021/05/23 03:26:47;;;;;;;0;0;;;;;;;;;;;;;
2021/05/23 03:29:14;;;;;;;0;0;;;;;;;;;;;;;
2021/05/23 03:31:39;;;;;;;0.1;0.1;;;;;;;;;;;;;
2021/05/23 03:34:04;;;;;;;1.6;0.7;;;;;;;;;;;;;
2021/05/23 03:36:29;;;;;;;0;0;;;;;;;;;;;;;
2021/05/23 03:38:55;;;;;;;0.3;0.3;;;;;;;;;;;;;
2021/05/23 03:41:21;;;;;;;0.5;0.3;;;;;;;;;;;;;
2021/05/23 03:43:47;;;;;;;0.2;0.2;;;;;;;;;;;;;
2021/05/23 03:46:12;;;;;;;0.2;0.1;;;;;;;;;;;;;
2021/05/23 03:48:37;;;;;;;0.2;0.2;;;;;;;;;;;;;
2021/05/23 03:51:02;;;;;;;0.1;0.1;;;;;;;;;;;;;
2021/05/23 03:53:27;;;;;;;0.1;0.1;;;;;;;;;;;;;
2021/05/23 03:55:52;;;;;;;1.8;0.3;;;;;;;;;;;;;
2021/05/23 03:58:17;;;;;;;0.1;0.1;;;;;;;;;;;;;
2021/05/23 04:02:30;;;;;;;0.6;0.2;;;;;;;9.14;86.58398;936.3617;;;;
2021/05/23 04:04:57;;;;;;;0.2;0.1;;;;;;;9.12;86.81934;936.3624;;;;
2021/05/23 04:07:20;;;;;;;0.3;0.3;;;;;;;8.99;86.41797;936.5058;;;;
2021/05/23 04:09:47;;;;;;;0.2;0.1;;;;;;;8.88;87.39746;936.5726;;;;
2021/05/23 04:12:14;;;;;;;0.1;0.1;;;;;;;9.01;86.2627;936.6334;;;;
2021/05/23 04:14:40;;;;;;;0.1;0.1;;;;;;;9.08;87.0166;936.6708;;;;
2021/05/23 04:17:05;;;;;;;0.1;0.1;;;;;;;9.29;85.7832;936.7014;;;;
2021/05/23 04:19:36;;;;;;;0.1;0.1;;;;;;;9.25;85.58301;936.7581;;;;
2021/05/23 04:22:03;;;;;;;0.3;0.2;;;;;;;9.4;83.81348;936.7137;;;;
2021/05/23 04:24:29;;;;;;;0.1;0.1;;;;;;;9.44;83.06934;936.7471;;;;
2021/05/23 04:26:54;;;;;;;0.8;0.3;;;;;;;9.47;82.61914;936.7681;;;;
2021/05/23 04:29:20;;;;;;;0.1;0.1;;;;;;;9.46;83.40332;936.7465;;;;
2021/05/23 04:31:46;;;;;;;0.1;0.1;;;;;;;9.55;83.09961;936.7967;;;;
2021/05/23 04:34:12;;;;;;;0.1;0.1;;;;;;;9.65;83.08691;936.899;;;;
2021/05/23 04:36:38;;;;;;;0.2;0.2;;;;;;;9.68;83.36719;936.9034;;;;
2021/05/23 04:39:06;;;;;;;0.1;0.1;;;;;;;9.47;83.49609;936.9604;;;;
2021/05/23 04:41:31;;;;;;;0;0;;;;;;;9.6;82.88379;936.8903;;;;
2021/05/23 04:43:58;;;;;;;0.1;0.1;;;;;;;9.55;83.38477;937.0066;;;;
2021/05/23 04:46:23;;;;;;;0.6;0.2;;;;;;;9.54;82.72363;937.02;;;;
2021/05/23 04:48:48;;;;;;;0.2;0.1;;;;;;;9.57;83.13965;937.0736;;;;
2021/05/23 04:51:13;;;;;;;0.5;0.1;;;;;;;9.61;84.03613;937.0974;;;;
2021/05/23 04:53:38;;;;;;;0.6;0.4;;;;;;;9.55;83.80762;937.1672;;;;
2021/05/23 04:56:03;;;;;;;0.1;0.1;;;;;;;9.47;83.98535;937.2417;;;;
2021/05/23 04:58:28;;;;;;;0;0;;;;;;;9.54;82.62109;937.2497;;;;
2021/05/23 05:00:55;;;;;;;0.1;0.1;;;;;;;9.49;81.17578;937.2913;;;;
2021/05/23 05:03:20;;;;;;;0;0;;;;;;;9.42;82.72266;937.3898;;;;
2021/05/23 05:05:46;;;;;;;0.3;0.3;;;;;;;9.32;84.20605;937.3524;;;;
2021/05/23 05:08:11;;;;;;;0.4;0.3;;;;;;;9.48;84.16016;937.358;;;;
2021/05/23 05:10:37;;;;;;;0.2;0.2;;;;;;;9.49;84.54688;937.3787;;;;
2021/05/23 05:13:02;;;;;;;0.1;0.1;;;;;;;9.57;83.62891;937.4328;;;;
2021/05/23 05:15:31;;;;;;;0.1;0.1;;;;;;;9.58;83.82617;937.5204;;;;
2021/05/23 05:17:56;;;;;;;0.3;0.2;;;;;;;9.69;82.92383;937.6253;;;;
2021/05/23 05:20:26;;;;;;;0.2;0.1;;;;;;;9.65;82.50391;937.5747;;;;
2021/05/23 05:22:53;;;;;;;0.2;0.2;;;;;;;9.66;83.70508;937.5686;;;;
2021/05/23 05:25:18;;;;;;;0.2;0.1;;;;;;;9.69;83.80176;937.5013;;;;
2021/05/23 05:27:45;;;;;;;0.2;0.2;;;;;;;9.65;84.07813;937.6297;;;;
2021/05/23 05:30:10;;;;;;;43.2;20.5;;;;;;;9.49;85.57227;937.66;;;;
2021/05/23 05:32:38;;;;;;;116.5;62.9;;;;;;;9.54;85.84473;937.6623;;;;
2021/05/23 05:35:03;;;;;;;4;1.8;;;;;;;9.66;84.97949;937.6202;;;;
2021/05/23 05:37:30;;;;;;;13.8;9;;;;;;;9.75;84.35938;937.7651;;;;
2021/05/23 05:39:55;;;;;;;0.9;0.7;;;;;;;9.74;83.78809;937.7404;;;;
2021/05/23 05:42:20;;;;;;;0.3;0.2;;;;;;;9.79;83.31738;937.717;;;;
2021/05/23 05:44:45;;;;;;;0.1;0.1;;;;;;;9.82;82.70898;937.7719;;;;
2021/05/23 05:47:11;;;;;;;0;0;;;;;;;9.88;82.28613;937.8369;;;;
2021/05/23 05:49:37;;;;;;;0.1;0.1;;;;;;;9.81;81.2373;937.8616;;;;
2021/05/23 05:52:01;;;;;;;0.5;0.2;;;;;;;9.65;82.25293;937.8752;;;;
2021/05/23 05:54:26;;;;;;;0;0;;;;;;;9.59;82.64355;937.8649;;;;
2021/05/23 05:56:52;;;;;;;0.1;0;;;;;;;9.29;83.0166;937.8431;;;;
2021/05/23 05:59:17;;;;;;;0.1;0.1;;;;;;;9.49;83.625;937.9494;;;;
2021/05/23 06:01:42;;;;;;;0.2;0;;;;;;;9.65;84.1123;937.9604;;;;
2021/05/23 06:04:08;;;;;;;0;0;;;;;;;9.88;83.12012;938.113;;;;
2021/05/23 06:06:33;;;;;;;0;0;;;;;;;9.77;82.45898;938.1534;;;;
2021/05/23 06:08:59;;;;;;;0.3;0.2;;;;;;;9.99;82.85742;938.2366;;;;
2021/05/23 06:11:24;;;;;;;0;0;;;;;;;9.91;82.33887;938.3312;;;;
2021/05/23 06:13:51;;;;;;;0;0;;;;;;;9.8;81.56543;938.3956;;;;
2021/05/23 06:16:16;;;;;;;0.1;0.1;;;;;;;9.77;81.0459;938.4333;;;;
2021/05/23 06:18:45;;;;;;;0.1;0.1;;;;;;;9.79;82.30371;938.5154;;;;
2021/05/23 06:21:09;;;;;;;0.2;0.2;;;;;;;9.82;82.46973;938.5201;;;;
2021/05/23 06:23:36;;;;;;;0.1;0;;;;;;;9.87;82.46875;938.4174;;;;
2021/05/23 06:26:01;;;;;;;0;0;;;;;;;10.08;81.6416;938.3684;;;;
2021/05/23 06:28:26;;;;;;;0;0;;;;;;;10.13;81.2627;938.5742;;;;
2021/05/23 06:30:51;;;;;;;0;0;;;;;;;10.12;80.98828;938.4986;;;;
2021/05/23 06:33:20;;;;;;;0;0;;;;;;;10.33;80.75391;938.5485;;;;
2021/05/23 06:35:45;;;;;;;0.1;0;;;;;;;10.33;80.43359;938.5421;;;;
2021/05/23 06:38:10;;;;;;;0.6;0.3;;;;;;;10.26;80.19238;938.6328;;;;
2021/05/23 06:40:35;;;;;;;0.2;0.1;;;;;;;10.22;80.61719;938.6267;;;;
2021/05/23 06:43:00;;;;;;;0;0;;;;;;;10.19;81.15039;938.6792;;;;
2021/05/23 06:45:25;;;;;;;0.1;0.1;;;;;;;10.26;80.375;938.7203;;;;
2021/05/23 06:47:53;;;;;;;0.1;0.1;;;;;;;10.28;79.68262;938.6458;;;;
2021/05/23 06:50:18;;;;;;;0.2;0.2;;;;;;;10.28;81.14258;938.7906;;;;
2021/05/23 06:52:44;;;;;;;0.3;0.3;;;;;;;10.4;81.0752;938.8445;;;;
2021/05/23 06:55:09;;;;;;;0.8;0.1;;;;;;;10.49;80.09766;938.9444;;;;
2021/05/23 06:57:35;;;;;;;0.3;0.3;;;;;;;10.46;80.21777;938.8422;;;;
2021/05/23 07:00:02;;;;;;;0.1;0.1;;;;;;;10.63;79.97559;938.896;;;;
2021/05/23 07:02:27;;;;;;;0.1;0.1;;;;;;;10.54;80.01563;938.9521;;;;
2021/05/23 07:04:52;;;;;;;0;0;;;;;;;10.7;78.77832;938.9564;;;;
2021/05/23 07:07:17;;;;;;;0.2;0.2;;;;;;;10.71;77.9668;939.0416;;;;
2021/05/23 07:09:43;;;;;;;0;0;;;;;;;10.68;79.17285;938.988;;;;
2021/05/23 07:12:07;;;;;;;0.1;0.1;;;;;;;10.63;78.73047;938.986;;;;
2021/05/23 07:14:33;;;;;;;2.2;0;;;;;;;10.74;77.81348;938.9664;;;;
2021/05/23 07:16:58;;;;;;;0;0;;;;;;;10.82;78.85547;938.957;;;;
2021/05/23 07:19:26;;;;;;;0.6;0.3;;;;;;;10.75;79.30176;938.9442;;;;
2021/05/23 07:21:51;;;;;;;0.3;0.3;;;;;;;10.9;79.06543;939.0263;;;;
2021/05/23 07:24:16;;;;;;;0.5;0.4;;;;;;;11.05;78.94531;939.1085;;;;
2021/05/23 07:26:42;;;;;;;0.9;0.5;;;;;;;11.2;78.48926;939.1647;;;;
2021/05/23 07:29:09;;;;;;;1.5;0.8;;;;;;;11.06;78.20215;939.1707;;;;
2021/05/23 07:31:34;;;;;;;0.1;0.1;;;;;;;10.99;77.11621;939.2031;;;;
2021/05/23 07:33:59;;;;;;;1.1;0.4;;;;;;;11.07;77.41504;939.1747;;;;
2021/05/23 07:36:24;;;;;;;0.3;0.2;;;;;;;11.15;78.56152;939.2479;;;;
2021/05/23 07:38:51;;;;;;;0.2;0.2;;;;;;;11.21;78.70801;939.3376;;;;
2021/05/23 07:41:16;;;;;;;0.1;0.1;;;;;;;11.4;79.03027;939.3683;;;;
2021/05/23 07:43:43;;;;;;;0.5;0.2;;;;;;;11.56;79.2666;939.3586;;;;
2021/05/23 07:46:08;;;;;;;0.1;0.1;;;;;;;11.57;77.84863;939.3411;;;;
2021/05/23 07:48:35;;;;;;;0.3;0.2;;;;;;;11.72;76.74121;939.4214;;;;
2021/05/23 07:51:00;;;;;;;0.2;0.2;;;;;;;11.92;77.39648;939.4903;;;;
2021/05/23 07:53:25;;;;;;;0.1;0.1;;;;;;;11.82;76.16504;939.4299;;;;
2021/05/23 07:55:50;;;;;;;0.1;0.1;;;;;;;11.89;73.41602;939.4447;;;;
2021/05/23 07:58:17;;;;;;;0;0;;;;;;;11.95;74.42285;939.3987;;;;
2021/05/23 08:00:42;;;;;;;0;0;;;;;;;12.02;74.45703;939.3819;;;;
2021/05/23 08:03:09;;;;;;;1;0.2;;;;;;;12.09;75.29395;939.462;;;;
2021/05/23 08:05:35;;;;;;;0;0;;;;;;;12.05;74.47266;939.4762;;;;
2021/05/23 08:08:02;;;;;;;0.1;0.1;;;;;;;11.61;74.9248;939.5176;;;;
2021/05/23 08:10:28;;;;;;;0.3;0.3;;;;;;;11.84;74.86133;939.5369;;;;
2021/05/23 08:12:56;;;;;;;0.1;0.1;;;;;;;11.95;73.93164;939.6286;;;;
2021/05/23 08:15:21;;;;;;;0.4;0.4;;;;;;;12.46;74.53223;939.6329;;;;
2021/05/23 08:17:47;;;;;;;0;0;;;;;;;13.2;72.91504;939.6578;;;;
2021/05/23 08:20:12;;;;;;;0.3;0.2;;;;;;;13.89;68.32422;939.6295;;;;
2021/05/23 08:22:39;;;;;;;0;0;;;;;;;14.91;64.2168;939.6594;;;;
2021/05/23 08:25:04;;;;;;;0;0;;;;;;;15;64.85156;939.6067;;;;
2021/05/23 08:27:29;;;;;;;0;0;;;;;;;15.73;59.86621;939.6097;;;;
2021/05/23 08:29:55;;;;;;;0.2;0.1;;;;;;;15.99;59.44922;939.5145;;;;
2021/05/23 08:32:22;;;;;;;0;0;;;;;;;16.57;57.44434;939.5245;;;;
2021/05/23 08:34:48;;;;;;;0.2;0.2;;;;;;;16.89;56.32813;939.4684;;;;
2021/05/23 08:37:16;;;;;;;0.4;0.2;;;;;;;16.29;60.05664;939.3932;;;;
2021/05/23 08:39:40;;;;;;;0.1;0.1;;;;;;;15.99;54.18848;939.415;;;;
2021/05/23 08:42:06;;;;;;;0;0;;;;;;;16.48;53.49707;939.4453;;;;
2021/05/23 08:44:31;;;;;;;0;0;;;;;;;18.13;51.50293;939.3597;;;;
2021/05/23 08:46:57;;;;;;;0;0;;;;;;;19.39;47.27051;939.3142;;;;
2021/05/23 08:49:22;;;;;;;0.1;0.1;;;;;;;20.04;44.32813;939.2921;;;;
2021/05/23 08:51:48;;;;;;;0.3;0.1;;;;;;;21.08;46.1875;939.3293;;;;
2021/05/23 08:54:13;;;;;;;0.4;0.2;;;;;;;22.88;40.72656;939.3011;;;;
2021/05/23 08:56:40;;;;;;;0.4;0.1;;;;;;;23.78;39.2793;939.2319;;;;
2021/05/23 08:59:03;;;;;;;0;0;;;;;;;24.51;35.47754;939.2225;;;;
2021/05/23 09:01:29;;;;;;;0.5;0.2;;;;;;;24.91;35.54492;939.2664;;;;
2021/05/23 09:03:54;;;;;;;0;0;;;;;;;23.67;35.99902;939.1945;;;;
2021/05/23 09:06:20;;;;;;;0;0;;;;;;;21.65;41.15332;939.1688;;;;
2021/05/23 09:08:45;;;;;;;0;0;;;;;;;22.69;38.59668;939.2952;;;;
2021/05/23 09:11:10;;;;;;;0;0;;;;;;;21.84;41.04102;939.2783;;;;
2021/05/23 09:13:36;;;;;;;0.1;0.1;;;;;;;23.03;38.19141;939.2302;;;;
2021/05/23 09:16:01;;;;;;;0.1;0.1;;;;;;;21.75;39.61523;939.267;;;;
2021/05/23 09:18:28;;;;;;;0;0;;;;;;;21.75;40.07227;939.3164;;;;
2021/05/23 09:20:53;;;;;;;0;0;;;;;;;21.4;40.84766;939.3641;;;;
2021/05/23 09:23:21;;;;;;;0;0;;;;;;;21.53;40.14746;939.3156;;;;
2021/05/23 09:25:43;;;;;;;0.2;0.1;;;;;;;21.1;43.99023;939.3702;;;;
2021/05/23 09:28:11;;;;;;;0;0;;;;;;;21.29;42.28906;939.3463;;;;
2021/05/23 09:30:37;;;;;;;0.3;0.2;;;;;;;22;40.83301;939.3466;;;;
2021/05/23 09:33:01;;;;;;;1.3;0.2;;;;;;;22.19;39.67871;939.3484;;;;
2021/05/23 09:35:27;;;;;;;0;0;;;;;;;21.39;44.07715;939.3734;;;;
2021/05/23 09:37:52;;;;;;;0;0;;;;;;;21.81;41.35449;939.4258;;;;
2021/05/23 09:40:17;;;;;;;0;0;;;;;;;22.39;37.81836;939.389;;;;
2021/05/23 09:42:42;;;;;;;0.9;0;;;;;;;21.94;39.92578;939.4802;;;;
2021/05/23 09:45:09;;;;;;;0;0;;;;;;;21.06;41.23828;939.5273;;;;
2021/05/23 09:47:38;;;;;;;0;0;;;;;;;19.46;43.78027;939.5764;;;;
2021/05/23 09:50:04;;;;;;;0;0;;;;;;;19.23;44.52734;939.5383;;;;
2021/05/23 09:52:29;;;;;;;0;0;;;;;;;18.93;45.42676;939.5725;;;;
2021/05/23 09:54:54;;;;;;;0.2;0;;;;;;;17.69;49.16504;939.5438;;;;
2021/05/23 09:57:19;;;;;;;0;0;;;;;;;18.26;49.92578;939.5979;;;;
2021/05/23 09:59:46;;;;;;;0;0;;;;;;;18.03;48.94727;939.6555;;;;
2021/05/23 10:02:11;;;;;;;0.6;0.1;;;;;;;18.08;48.03418;939.6475;;;;
2021/05/23 10:04:38;;;;;;;0;0;;;;;;;17.81;46.62402;939.603;;;;
2021/05/23 10:07:03;;;;;;;0;0;;;;;;;18.01;50.57129;939.5477;;;;
2021/05/23 10:09:31;;;;;;;0;0;;;;;;;18.2;48.1875;939.5471;;;;
2021/05/23 10:11:56;;;;;;;0;0;;;;;;;18.41;46.76855;939.5531;;;;
2021/05/23 10:14:23;;;;;;;0;0;;;;;;;18.7;45.93945;939.5428;;;;
2021/05/23 10:16:51;;;;;;;0;0;;;;;;;18.58;47.68262;939.577;;;;
2021/05/23 10:19:16;;;;;;;0.1;0;;;;;;;19.1;44.60742;939.5884;;;;
2021/05/23 10:21:46;;;;;;;0;0;;;;;;;19.16;43.62402;939.6655;;;;
2021/05/23 10:24:06;;;;;;;0.2;0.1;;;;;;;19.57;43.6875;939.6039;;;;
2021/05/23 10:26:32;;;;;;;0;0;;;;;;;19.33;47.51953;939.676;;;;
2021/05/23 10:28:58;;;;;;;0.1;0;;;;;;;18.9;49.36914;939.6973;;;;
2021/05/23 10:31:22;;;;;;;0.1;0.1;;;;;;;17.17;54.09277;939.6082;;;;
2021/05/23 10:33:49;;;;;;;0;0;;;;;;;16.78;52.60645;939.7173;;;;
2021/05/23 10:36:14;;;;;;;1.1;0.1;;;;;;;16.48;53.64844;939.6357;;;;
2021/05/23 10:38:42;;;;;;;4;0.1;;;;;;;16.1;53.78613;939.5974;;;;
2021/05/23 10:41:07;;;;;;;0;0;;;;;;;15.71;56.11816;939.6692;;;;
2021/05/23 10:43:33;;;;;;;0;0;;;;;;;16.25;55.30859;939.6644;;;;
2021/05/23 10:45:58;;;;;;;0.2;0.1;;;;;;;17.37;51.56445;939.6516;;;;
2021/05/23 10:48:27;;;;;;;0;0;;;;;;;18.15;49.37891;939.6534;;;;
2021/05/23 10:50:52;;;;;;;1.3;0.2;;;;;;;18.49;48.88184;939.5173;;;;
2021/05/23 10:53:17;;;;;;;0;0;;;;;;;19.25;45.18066;939.5153;;;;
2021/05/23 10:55:42;;;;;;;0.2;0.1;;;;;;;19.21;47.86719;939.5288;;;;
2021/05/23 10:58:08;;;;;;;0;0;;;;;;;19.33;45.18945;939.4739;;;;
2021/05/23 11:00:35;;;;;;;1.6;0.2;;;;;;;19.56;44.85059;939.505;;;;
2021/05/23 11:03:07;;;;;;;0;0;;;;;;;19.17;46.29102;939.4829;;;;
2021/05/23 11:05:32;;;;;;;0;0;;;;;;;19.35;44.59668;939.4945;;;;
2021/05/23 11:07:57;;;;;;;0;0;;;;;;;19.44;44.89844;939.5355;;;;
2021/05/23 11:10:28;;;;;;;0;0;;;;;;;19.45;43.72266;939.4956;;;;
2021/05/23 11:12:58;;;;;;;0.2;0.1;;;;;;;19.43;43.3584;939.418;;;;
2021/05/23 11:15:27;;;;;;;0;0;;;;;;;19.02;46.26367;939.4045;;;;
2021/05/23 11:17:52;;;;;;;0;0;;;;;;;18.95;47.35156;939.3967;;;;
2021/05/23 11:20:17;;;;;;;1.7;0.4;;;;;;;19.05;46.11523;939.3773;;;;
2021/05/23 11:22:45;;;;;;;0;0;;;;;;;19.15;45.40332;939.3323;;;;
2021/05/23 11:25:07;;;;;;;0.1;0.1;;;;;;;18.79;46.13477;939.3611;;;;
2021/05/23 11:27:34;;;;;;;0.2;0.2;;;;;;;18.74;47.33887;939.2969;;;;
2021/05/23 11:29:59;;;;;;;0;0;;;;;;;18.87;46.18848;939.3284;;;;
2021/05/23 11:32:29;;;;;;;0;0;;;;;;;19.07;45.39551;939.2914;;;;
2021/05/23 11:34:57;;;;;;;0.1;0;;;;;;;19.37;43.50488;939.3373;;;;
2021/05/23 11:37:22;;;;;;;0;0;;;;;;;19.42;43.28711;939.3244;;;;
2021/05/23 11:39:50;;;;;;;0;0;;;;;;;19.39;46.01172;939.3289;;;;
2021/05/23 11:42:15;;;;;;;0;0;;;;;;;18.74;44.9082;939.2773;;;;
2021/05/23 11:44:40;;;;;;;0;0;;;;;;;19.14;43.49316;939.209;;;;
2021/05/23 11:47:05;;;;;;;0;0;;;;;;;19.35;46.8916;939.0689;;;;
2021/05/23 11:49:32;;;;;;;0;0;;;;;;;18.89;44.5625;939.0946;;;;
2021/05/23 11:51:59;;;;;;;0;0;;;;;;;19.28;43.32129;939.1174;;;;
2021/05/23 11:54:24;;;;;;;0.3;0.3;;;;;;;19;44.75977;939.0631;;;;
2021/05/23 11:56:49;;;;;;;0.5;0.2;;;;;;;18.81;44.06641;939.038;;;;
2021/05/23 11:59:14;;;;;;;0;0;;;;;;;18.58;45.43848;939.0349;;;;
2021/05/23 12:01:39;;;;;;;0;0;;;;;;;18.77;45.03906;938.9952;;;;
2021/05/23 12:04:05;;;;;;;0;0;;;;;;;19.11;44.48145;938.9247;;;;
2021/05/23 12:06:31;;;;;;;0;0;;;;;;;19.45;39.96875;938.8464;;;;
2021/05/23 12:08:56;;;;;;;0.2;0.1;;;;;;;19.39;39.17188;938.8427;;;;
2021/05/23 12:11:21;;;;;;;0.2;0;;;;;;;19.15;40.59473;938.7697;;;;
2021/05/23 12:13:46;;;;;;;0;0;;;;;;;19.07;39.55078;938.6666;;;;
2021/05/23 12:16:11;;;;;;;0;0;;;;;;;19.44;38.60547;938.7787;;;;
2021/05/23 12:18:38;;;;;;;0;0;;;;;;;19.59;38.92188;938.7286;;;;
2021/05/23 12:21:12;;;;;;;0;0;;;;;;;19.95;40.35254;938.7178;;;;
2021/05/23 12:23:28;;;;;;;0.1;0;;;;;;;20.03;38.63379;938.7307;;;;
2021/05/23 12:25:54;;;;;;;0;0;;;;;;;19.73;41.12598;938.7246;;;;
2021/05/23 12:28:18;;;;;;;0.1;0;;;;;;;19.36;43.74805;938.715;;;;
2021/05/23 12:30:44;;;;;;;0;0;;;;;;;19.45;42.26465;938.7358;;;;
2021/05/23 12:33:09;;;;;;;1.8;0.2;;;;;;;19.49;42.55957;938.7487;;;;
2021/05/23 12:35:35;;;;;;;0;0;;;;;;;19.76;41.97949;938.7434;;;;
2021/05/23 12:38:00;;;;;;;0.1;0.1;;;;;;;19.89;40.75684;938.6965;;;;
2021/05/23 12:40:25;;;;;;;0.8;0.2;;;;;;;20.14;40.93066;938.6547;;;;
2021/05/23 12:42:50;;;;;;;0;0;;;;;;;20.27;41.38574;938.671;;;;
2021/05/23 12:45:18;;;;;;;0;0;;;;;;;20.43;39.46191;938.6908;;;;
2021/05/23 12:47:44;;;;;;;0;0;;;;;;;20.47;42.40918;938.6604;;;;
2021/05/23 12:50:08;;;;;;;0;0;;;;;;;20.77;38.3125;938.6569;;;;
2021/05/23 12:52:36;;;;;;;0;0;;;;;;;20.7;37.38379;938.5917;;;;
2021/05/23 12:55:02;;;;;;;0;0;;;;;;;20.79;38.95703;938.6248;;;;
2021/05/23 12:57:28;;;;;;;0;0;;;;;;;20.51;40.32227;938.6989;;;;
2021/05/23 12:59:53;;;;;;;0;0;;;;;;;19.84;39.02539;938.6558;;;;
2021/05/23 13:02:17;;;;;;;0;0;;;;;;;19.45;43.24316;938.7615;;;;
2021/05/23 13:04:43;;;;;;;9.5;0.1;;;;;;;19.15;43.34277;938.7156;;;;
2021/05/23 13:07:08;;;;;;;0;0;;;;;;;18.86;40.70703;938.7339;;;;
2021/05/23 13:09:34;;;;;;;0.1;0.1;;;;;;;19.22;41.54395;938.7166;;;;
2021/05/23 13:12:00;;;;;;;0;0;;;;;;;19.2;42.1123;938.6669;;;;
2021/05/23 13:14:25;;;;;;;0;0;;;;;;;19.47;43.04785;938.6359;;;;
2021/05/23 13:16:51;;;;;;;0;0;;;;;;;19.76;40.48633;938.606;;;;
2021/05/23 13:19:16;;;;;;;0;0;;;;;;;19.98;39.64355;938.5627;;;;
2021/05/23 13:21:41;;;;;;;0;0;;;;;;;19.4;39.91797;938.6122;;;;
2021/05/23 13:24:10;;;;;;;0;0;;;;;;;18.84;41.03125;938.5922;;;;
2021/05/23 13:26:35;;;;;;;0;0;;;;;;;19.15;41.09473;938.5485;;;;
2021/05/23 13:29:03;;;;;;;0.1;0.1;;;;;;;19.3;41.83105;938.5784;;;;
2021/05/23 13:31:28;;;;;;;0;0;;;;;;;19.42;40.37402;938.6169;;;;
2021/05/23 13:33:57;;;;;;;0.5;0.3;;;;;;;19.42;43.13574;938.6465;;;;
2021/05/23 13:36:21;;;;;;;0;0;;;;;;;19.23;42.46582;938.5807;;;;
2021/05/23 13:38:47;;;;;;;0;0;;;;;;;18.99;43.87402;938.5769;;;;
2021/05/23 13:41:12;;;;;;;0;0;;;;;;;19.11;43.57227;938.5759;;;;
2021/05/23 13:43:39;;;;;;;0;0;;;;;;;18.96;42.39258;938.5614;;;;
2021/05/23 13:46:04;;;;;;;0;0;;;;;;;18.93;41.84277;938.5975;;;;
2021/05/23 13:48:29;;;;;;;0;0;;;;;;;18.7;41.79785;938.5876;;;;
2021/05/23 13:50:54;;;;;;;0;0;;;;;;;18.68;40.7832;938.5938;;;;
2021/05/23 13:53:21;;;;;;;0;0;;;;;;;18.65;42.13184;938.5798;;;;
2021/05/23 13:55:48;;;;;;;0;0;;;;;;;18.7;41.15723;938.5394;;;;
2021/05/23 13:58:13;;;;;;;0.1;0;;;;;;;18.69;42.12207;938.5444;;;;
2021/05/23 14:00:38;;;;;;;0.1;0.1;;;;;;;18.68;41.59766;938.5034;;;;
2021/05/23 14:03:16;;;;;;;0;0;;;;;;;18.6;42.50977;938.5586;;;;
2021/05/23 14:05:33;;;;;;;0;0;;;;;;;18.53;41.13086;938.535;;;;
2021/05/23 14:08:01;;;;;;;0.1;0.1;;;;;;;18.28;42.41992;938.527;;;;
2021/05/23 14:10:26;;;;;;;0.1;0.1;;;;;;;18.37;44.12598;938.4849;;;;
2021/05/23 14:12:53;;;;;;;0.1;0.1;;;;;;;18.48;43.69531;938.4465;;;;
2021/05/23 14:15:18;;;;;;;0.2;0.1;;;;;;;18.63;42.22168;938.4141;;;;
2021/05/23 14:17:43;;;;;;;0.1;0.1;;;;;;;18.65;41.1416;938.4073;;;;
2021/05/23 14:20:08;;;;;;;0;0;;;;;;;18.56;42.55176;938.361;;;;
2021/05/23 14:22:33;;;;;;;0.1;0;;;;;;;18.43;43.84082;938.3758;;;;
2021/05/23 14:24:58;;;;;;;0;0;;;;;;;18.02;42.46484;938.3494;;;;
2021/05/23 14:27:24;;;;;;;0;0;;;;;;;17.74;42.84375;938.3116;;;;
2021/05/23 14:29:50;;;;;;;0.5;0.1;;;;;;;17.61;43.2959;938.3268;;;;
2021/05/23 14:32:14;;;;;;;0.1;0;;;;;;;17.64;44.61035;938.4014;;;;
2021/05/23 14:34:39;;;;;;;0;0;;;;;;;17.68;43.15137;938.373;;;;
2021/05/23 14:37:06;;;;;;;0.1;0;;;;;;;17.39;42.7168;938.3908;;;;
2021/05/23 14:39:33;;;;;;;0;0;;;;;;;17.03;44.44336;938.4677;;;;
2021/05/23 14:41:57;;;;;;;0.1;0;;;;;;;17.03;44.98828;938.4196;;;;
2021/05/23 14:44:23;;;;;;;0;0;;;;;;;16.98;45.73633;938.4817;;;;
2021/05/23 14:46:51;;;;;;;0;0;;;;;;;17.05;46.17188;938.4055;;;;
2021/05/23 14:49:16;;;;;;;0.1;0.1;;;;;;;17.03;45.75293;938.4694;;;;
2021/05/23 14:51:41;;;;;;;0;0;;;;;;;17.05;44.75879;938.4142;;;;
2021/05/23 14:57:44;;;;;;;0.2;0.1;;;;;;;16.68;45.39258;938.3998;;;;
2021/05/23 15:00:06;;;;;;;0.3;0;;;;;;;16.8;45.90332;938.4455;;;;
2021/05/23 15:02:33;;;;;;;0;0;;;;;;;16.93;45.98633;938.4342;;;;
2021/05/23 15:04:58;;;;;;;0;0;;;;;;;16.99;45.95898;938.3722;;;;
2021/05/23 15:07:28;;;;;;;0;0;;;;;;;16.91;45.42773;938.4266;;;;
2021/05/23 15:09:53;;;;;;;0;0;;;;;;;16.73;45.52539;938.3645;;;;
2021/05/23 15:12:19;;;;;;;0;0;;;;;;;16.89;44.88184;938.4019;;;;
2021/05/23 15:14:44;;;;;;;0;0;;;;;;;16.88;43.86133;938.3087;;;;
2021/05/23 15:17:10;;;;;;;0.8;0.2;;;;;;;17.01;43.42188;938.3672;;;;
2021/05/23 15:19:35;;;;;;;0;0;;;;;;;17.04;43.47168;938.2921;;;;
2021/05/23 15:22:00;;;;;;;0;0;;;;;;;17.2;43.81152;938.3516;;;;
2021/05/23 15:24:25;;;;;;;4.4;0.3;;;;;;;17.08;43.52148;938.4154;;;;
2021/05/23 15:26:59;;;;;;;0;0;;;;;;;17;43.4209;938.3246;;;;
2021/05/23 15:31:45;;;;;;;0.2;0.1;;;;;;;16.81;42.42871;938.3635;;;;
2021/05/23 15:34:10;;;;;;;1.3;0.3;;;;;;;16.75;43.15234;938.3499;;;;
2021/05/23 15:36:35;;;;;;;0;0;;;;;;;16.84;43.05762;938.2893;;;;
2021/05/23 15:39:02;;;;;;;0.1;0.1;;;;;;;16.66;43.67773;938.345;;;;
2021/05/23 15:41:27;;;;;;;0.2;0.1;;;;;;;16.61;43.46387;938.3383;;;;
2021/05/23 15:43:52;;;;;;;0.4;0;;;;;;;16.45;43.22754;938.3436;;;;
2021/05/23 15:46:17;;;;;;;0.1;0.1;;;;;;;16.5;43.64844;938.3003;;;;
2021/05/23 15:48:44;;;;;;;0.1;0;;;;;;;16.5;44.40234;938.2224;;;;
2021/05/23 15:51:09;;;;;;;0;0;;;;;;;16.58;44.96484;938.3137;;;;
2021/05/23 15:53:34;;;;;;;0.5;0.1;;;;;;;16.49;45.70898;938.38;;;;
2021/05/23 15:55:59;;;;;;;0.3;0.3;;;;;;;16.61;44.43652;938.3222;;;;
2021/05/23 15:58:24;;;;;;;0;0;;;;;;;16.46;44.31738;938.3844;;;;